Twentynine Palms (Self) Airport
KNXP : now visible

Airfield :











YOU CAN JOIN US ON...

 
LOGIN :

Register | Disclaimer

   EN    FR    IT 

 









Legend :    VFR   Marginal VFR   IFR   Intensive IFR   Very Intensive IFR
Visi :
Ceiling :
>= 8 km
>= 3000ft
5 to 8 km
1000 to 3000 ft
1500m to 5 km
500 to 1000 ft
800 to 1500m
200 to 500 ft
< 800m
< 200 ft
Symbols :   Thunderstorms  Fog  Heavy snow  Heavy precipitations  Wind > 20 kt






- Airport Elevation : 2051 ft


KNXP - Twentynine Palms (Self)

CURRENT METAR :
  • 171456Z AUTO 28006KT 9SM CLR 13/M06 A3021 RMK AO2 SLP205 T01331061 53011 $

EXPIRED METARs :
  • 171356Z AUTO 31009KT 10SM CLR 14/M06 A3019 RMK AO2 SLP199 T01391061 $
  • 171256Z AUTO 32006KT 10SM CLR 12/M06 A3018 RMK AO2 SLP193 T01221061 $

TAF TAF KNXP
Valid from the 17 at 03:00 until the 18 at 03:00 UTC


1703/1803 27009KT 9999 SKC QNH3010INS AUTOMATED SENSOR METWATCH 1703 TIL 1803 T12/1712Z T27/1721Z



MET'MAP, your aeronautical weather chart ! - Copyright ORBIFLY December 2007 - Disclaimer

ORBIFLY MET'MAP TEAM :

Programming & Development : Alexandra Zaïnal
Concept & Development : Baudouin d'Aumeries
Co-Development & Prog : Marc-Olivier Méhu
Technical & hardware support : Manuel Goepfert

Contact : metmap@orbifly.com




SOURCES & CREDITS :

   NOAA       Earth
Advisory